sensor_id;sensor_type;location;lat;lon;timestamp;pressure;altitude;pressure_sealevel;temperature;humidity
64298;BME280;50639;53.270;7.956;2023-06-14T00:02:06;101764.25;;;16.77;nan
64298;BME280;50639;53.270;7.956;2023-06-14T00:04:34;101756.16;;;16.71;nan
64298;BME280;50639;53.270;7.956;2023-06-14T00:07:00;101764.25;;;16.71;nan
64298;BME280;50639;53.270;7.956;2023-06-14T00:09:25;101771.72;;;16.62;nan
64298;BME280;50639;53.270;7.956;2023-06-14T00:11:50;101767.53;;;16.60;nan
64298;BME280;50639;53.270;7.956;2023-06-14T00:14:16;101770.22;;;16.53;nan
64298;BME280;50639;53.270;7.956;2023-06-14T00:16:41;101768.34;;;16.47;nan
64298;BME280;50639;53.270;7.956;2023-06-14T00:19:08;101774.16;;;16.44;nan
64298;BME280;50639;53.270;7.956;2023-06-14T00:21:35;101768.34;;;16.40;nan
64298;BME280;50639;53.270;7.956;2023-06-14T00:24:02;101771.03;;;16.34;nan
64298;BME280;50639;53.270;7.956;2023-06-14T00:26:27;101773.94;;;16.32;nan
64298;BME280;50639;53.270;7.956;2023-06-14T00:28:56;101774.13;;;16.31;nan
64298;BME280;50639;53.270;7.956;2023-06-14T00:31:22;101771.84;;;16.28;nan
64298;BME280;50639;53.270;7.956;2023-06-14T00:33:48;101779.06;;;16.21;nan
64298;BME280;50639;53.270;7.956;2023-06-14T00:36:14;101775.34;;;16.15;nan
64298;BME280;50639;53.270;7.956;2023-06-14T00:38:39;101781.75;;;16.07;nan
64298;BME280;50639;53.270;7.956;2023-06-14T00:41:07;101779.25;;;16.06;nan
64298;BME280;50639;53.270;7.956;2023-06-14T00:43:33;101777.38;;;16.00;nan
64298;BME280;50639;53.270;7.956;2023-06-14T00:46:00;101778.22;;;16.00;nan
64298;BME280;50639;53.270;7.956;2023-06-14T00:48:26;101775.69;;;15.92;nan
64298;BME280;50639;53.270;7.956;2023-06-14T00:50:52;101776.69;;;15.85;nan
64298;BME280;50639;53.270;7.956;2023-06-14T00:53:18;101783.09;;;15.84;nan
64298;BME280;50639;53.270;7.956;2023-06-14T00:55:44;101777.91;;;15.75;nan
64298;BME280;50639;53.270;7.956;2023-06-14T00:58:10;101776.66;;;15.71;nan
64298;BME280;50639;53.270;7.956;2023-06-14T01:00:36;101776.22;;;15.74;nan
64298;BME280;50639;53.270;7.956;2023-06-14T01:03:02;101776.00;;;15.69;nan
64298;BME280;50639;53.270;7.956;2023-06-14T01:05:28;101773.28;;;15.63;nan
64298;BME280;50639;53.270;7.956;2023-06-14T01:08:22;101779.28;;;15.58;nan
64298;BME280;50639;53.270;7.956;2023-06-14T01:11:12;101786.66;;;15.50;nan
64298;BME280;50639;53.270;7.956;2023-06-14T01:13:44;101782.06;;;15.43;nan
64298;BME280;50639;53.270;7.956;2023-06-14T01:16:11;101782.69;;;15.39;nan
64298;BME280;50639;53.270;7.956;2023-06-14T01:18:37;101784.53;;;15.38;nan
64298;BME280;50639;53.270;7.956;2023-06-14T01:21:03;101780.38;;;15.36;nan
64298;BME280;50639;53.270;7.956;2023-06-14T01:23:32;101778.72;;;15.35;nan
64298;BME280;50639;53.270;7.956;2023-06-14T01:25:59;101790.28;;;15.29;nan
64298;BME280;50639;53.270;7.956;2023-06-14T01:28:26;101789.81;;;15.25;nan
64298;BME280;50639;53.270;7.956;2023-06-14T01:30:59;101780.69;;;15.20;nan
64298;BME280;50639;53.270;7.956;2023-06-14T01:33:27;101791.19;;;15.15;nan
64298;BME280;50639;53.270;7.956;2023-06-14T01:35:58;101786.22;;;15.12;nan
64298;BME280;50639;53.270;7.956;2023-06-14T01:38:27;101794.50;;;15.10;nan
64298;BME280;50639;53.270;7.956;2023-06-14T01:40:55;101791.34;;;15.06;nan
64298;BME280;50639;53.270;7.956;2023-06-14T01:43:25;101792.97;;;15.01;nan
64298;BME280;50639;53.270;7.956;2023-06-14T01:45:52;101801.25;;;14.99;nan
64298;BME280;50639;53.270;7.956;2023-06-14T01:48:19;101798.50;;;14.93;nan
64298;BME280;50639;53.270;7.956;2023-06-14T01:50:45;101796.00;;;14.91;nan
64298;BME280;50639;53.270;7.956;2023-06-14T01:53:10;101799.03;;;14.82;nan
64298;BME280;50639;53.270;7.956;2023-06-14T01:55:36;101792.63;;;14.83;nan
64298;BME280;50639;53.270;7.956;2023-06-14T01:58:09;101800.66;;;14.76;nan
64298;BME280;50639;53.270;7.956;2023-06-14T02:00:34;101798.16;;;14.75;nan
64298;BME280;50639;53.270;7.956;2023-06-14T02:03:01;101792.31;;;14.71;nan
64298;BME280;50639;53.270;7.956;2023-06-14T02:05:26;101798.53;;;14.72;nan
64298;BME280;50639;53.270;7.956;2023-06-14T02:07:53;101800.78;;;14.68;nan
64298;BME280;50639;53.270;7.956;2023-06-14T02:10:18;101801.16;;;14.65;nan
64298;BME280;50639;53.270;7.956;2023-06-14T02:12:44;101794.81;;;14.51;nan
64298;BME280;50639;53.270;7.956;2023-06-14T02:15:10;101804.69;;;14.44;nan
64298;BME280;50639;53.270;7.956;2023-06-14T02:17:42;101799.94;;;14.46;nan
64298;BME280;50639;53.270;7.956;2023-06-14T02:20:09;101801.75;;;14.39;nan
64298;BME280;50639;53.270;7.956;2023-06-14T02:22:35;101801.75;;;14.39;nan
64298;BME280;50639;53.270;7.956;2023-06-14T02:25:00;101802.25;;;14.35;nan
64298;BME280;50639;53.270;7.956;2023-06-14T02:27:26;101801.25;;;14.36;nan
64298;BME280;50639;53.270;7.956;2023-06-14T02:29:51;101801.78;;;14.24;nan
64298;BME280;50639;53.270;7.956;2023-06-14T02:32:17;101796.75;;;14.21;nan
64298;BME280;50639;53.270;7.956;2023-06-14T02:34:44;101796.50;;;14.16;nan
64298;BME280;50639;53.270;7.956;2023-06-14T02:37:10;101804.75;;;14.15;nan
64298;BME280;50639;53.270;7.956;2023-06-14T02:39:36;101804.94;;;14.13;nan
64298;BME280;50639;53.270;7.956;2023-06-14T02:42:03;101801.78;;;14.10;nan
64298;BME280;50639;53.270;7.956;2023-06-14T02:44:29;101807.75;;;14.05;nan
64298;BME280;50639;53.270;7.956;2023-06-14T02:46:55;101802.09;;;14.00;nan
64298;BME280;50639;53.270;7.956;2023-06-14T02:49:21;101808.88;;;13.96;nan
64298;BME280;50639;53.270;7.956;2023-06-14T02:51:46;101809.00;;;13.88;nan
64298;BME280;50639;53.270;7.956;2023-06-14T02:54:12;101807.97;;;13.89;nan
64298;BME280;50639;53.270;7.956;2023-06-14T02:56:38;101807.31;;;13.87;nan
64298;BME280;50639;53.270;7.956;2023-06-14T02:59:04;101819.25;;;13.84;nan
64298;BME280;50639;53.270;7.956;2023-06-14T03:01:30;101818.16;;;13.79;nan
64298;BME280;50639;53.270;7.956;2023-06-14T03:04:01;101830.22;;;13.53;nan
64298;BME280;50639;53.270;7.956;2023-06-14T03:06:30;101834.28;;;13.64;nan
64298;BME280;50639;53.270;7.956;2023-06-14T03:08:57;101833.91;;;13.67;nan
64298;BME280;50639;53.270;7.956;2023-06-14T03:11:31;101836.88;;;13.57;nan
64298;BME280;50639;53.270;7.956;2023-06-14T03:13:57;101836.41;;;13.69;nan
64298;BME280;50639;53.270;7.956;2023-06-14T03:16:24;101840.94;;;13.68;nan
64298;BME280;50639;53.270;7.956;2023-06-14T03:18:51;101844.28;;;13.70;nan
64298;BME280;50639;53.270;7.956;2023-06-14T03:21:21;101838.25;;;13.68;nan
64298;BME280;50639;53.270;7.956;2023-06-14T03:23:49;101844.81;;;13.66;nan
64298;BME280;50639;53.270;7.956;2023-06-14T03:26:15;101839.47;;;13.66;nan
64298;BME280;50639;53.270;7.956;2023-06-14T03:28:47;101841.22;;;13.73;nan
64298;BME280;50639;53.270;7.956;2023-06-14T03:31:14;101849.09;;;13.75;nan
64298;BME280;50639;53.270;7.956;2023-06-14T03:33:40;101847.81;;;13.71;nan
64298;BME280;50639;53.270;7.956;2023-06-14T03:36:06;101858.34;;;13.72;nan
64298;BME280;50639;53.270;7.956;2023-06-14T03:38:34;101853.63;;;13.74;nan
64298;BME280;50639;53.270;7.956;2023-06-14T03:41:02;101852.25;;;13.78;nan
64298;BME280;50639;53.270;7.956;2023-06-14T03:43:27;101856.38;;;13.81;nan
64298;BME280;50639;53.270;7.956;2023-06-14T03:45:53;101859.53;;;13.84;nan
64298;BME280;50639;53.270;7.956;2023-06-14T03:49:00;101858.34;;;13.87;68.74
64298;BME280;50639;53.270;7.956;2023-06-14T03:51:25;101863.72;;;13.87;69.01
64298;BME280;50639;53.270;7.956;2023-06-14T03:53:51;101869.34;;;13.92;69.42
64298;BME280;50639;53.270;7.956;2023-06-14T03:56:17;101863.03;;;14.00;69.02
64298;BME280;50639;53.270;7.956;2023-06-14T03:58:42;101871.22;;;14.06;68.66
64298;BME280;50639;53.270;7.956;2023-06-14T04:01:09;101868.31;;;14.08;68.87
64298;BME280;50639;53.270;7.956;2023-06-14T04:03:34;101873.69;;;14.08;68.62
64298;BME280;50639;53.270;7.956;2023-06-14T04:06:01;101873.50;;;14.09;68.78
64298;BME280;50639;53.270;7.956;2023-06-14T04:08:26;101877.13;;;14.02;68.92
64298;BME280;50639;53.270;7.956;2023-06-14T04:10:51;101871.84;;;14.08;69.58
64298;BME280;50639;53.270;7.956;2023-06-14T04:13:17;101875.72;;;14.20;69.13
64298;BME280;50639;53.270;7.956;2023-06-14T04:15:43;101881.81;;;14.29;68.46
64298;BME280;50639;53.270;7.956;2023-06-14T04:18:14;101883.66;;;14.28;68.92
64298;BME280;50639;53.270;7.956;2023-06-14T04:20:39;101884.50;;;14.29;69.44
64298;BME280;50639;53.270;7.956;2023-06-14T04:23:15;101886.25;;;14.37;69.09
64298;BME280;50639;53.270;7.956;2023-06-14T04:25:44;101891.53;;;14.45;68.55
64298;BME280;50639;53.270;7.956;2023-06-14T04:28:13;101883.94;;;14.48;69.07
64298;BME280;50639;53.270;7.956;2023-06-14T04:30:43;101893.38;;;14.59;68.34
64298;BME280;50639;53.270;7.956;2023-06-14T04:33:08;101895.94;;;14.67;67.93
64298;BME280;50639;53.270;7.956;2023-06-14T04:35:35;101893.69;;;14.71;68.22
64298;BME280;50639;53.270;7.956;2023-06-14T04:38:03;101892.72;;;14.78;68.31
64298;BME280;50639;53.270;7.956;2023-06-14T04:40:38;101888.25;;;14.85;68.01
64298;BME280;50639;53.270;7.956;2023-06-14T04:43:09;101891.56;;;14.87;67.61
64298;BME280;50639;53.270;7.956;2023-06-14T04:45:39;101897.66;;;14.96;67.37
64298;BME280;50639;53.270;7.956;2023-06-14T04:48:06;101899.97;;;14.99;67.68
64298;BME280;50639;53.270;7.956;2023-06-14T04:50:32;101901.25;;;15.03;67.29
64298;BME280;50639;53.270;7.956;2023-06-14T04:52:58;101900.28;;;15.11;67.23
64298;BME280;50639;53.270;7.956;2023-06-14T04:55:26;101904.03;;;15.16;66.84
64298;BME280;50639;53.270;7.956;2023-06-14T04:57:52;101912.03;;;15.31;66.77
64298;BME280;50639;53.270;7.956;2023-06-14T05:00:20;101909.94;;;15.26;67.25
64298;BME280;50639;53.270;7.956;2023-06-14T05:02:46;101911.00;;;15.32;67.26
64298;BME280;50639;53.270;7.956;2023-06-14T05:05:12;101910.47;;;15.43;66.41
64298;BME280;50639;53.270;7.956;2023-06-14T05:07:38;101912.69;;;15.54;65.85
64298;BME280;50639;53.270;7.956;2023-06-14T05:10:04;101915.53;;;15.53;66.18
64298;BME280;50639;53.270;7.956;2023-06-14T05:12:31;101921.81;;;15.60;65.91
64298;BME280;50639;53.270;7.956;2023-06-14T05:14:57;101917.31;;;15.67;65.97
64298;BME280;50639;53.270;7.956;2023-06-14T05:17:24;101927.06;;;15.68;66.12
64298;BME280;50639;53.270;7.956;2023-06-14T05:19:49;101919.47;;;15.78;65.56
64298;BME280;50639;53.270;7.956;2023-06-14T05:22:14;101923.22;;;15.84;65.27
64298;BME280;50639;53.270;7.956;2023-06-14T05:24:40;101921.63;;;15.96;64.81
64298;BME280;50639;53.270;7.956;2023-06-14T05:27:07;101930.38;;;16.04;64.76
64298;BME280;50639;53.270;7.956;2023-06-14T05:29:32;101924.44;;;16.15;64.50
64298;BME280;50639;53.270;7.956;2023-06-14T05:31:57;101932.56;;;16.22;64.33
64298;BME280;50639;53.270;7.956;2023-06-14T05:34:23;101930.50;;;16.24;64.23
64298;BME280;50639;53.270;7.956;2023-06-14T05:36:48;101931.16;;;16.33;63.66
64298;BME280;50639;53.270;7.956;2023-06-14T05:39:14;101937.22;;;16.41;63.38
64298;BME280;50639;53.270;7.956;2023-06-14T05:41:39;101940.31;;;16.45;63.30
64298;BME280;50639;53.270;7.956;2023-06-14T05:44:05;101934.34;;;16.56;62.56
64298;BME280;50639;53.270;7.956;2023-06-14T05:46:30;101932.91;;;16.60;62.76
64298;BME280;50639;53.270;7.956;2023-06-14T05:48:56;101941.25;;;16.72;62.42
64298;BME280;50639;53.270;7.956;2023-06-14T05:51:22;101940.69;;;16.83;61.90
64298;BME280;50639;53.270;7.956;2023-06-14T05:53:50;101937.78;;;16.91;61.60
64298;BME280;50639;53.270;7.956;2023-06-14T05:56:16;101945.69;;;16.99;61.50
64298;BME280;50639;53.270;7.956;2023-06-14T05:58:45;101947.16;;;17.08;60.91
64298;BME280;50639;53.270;7.956;2023-06-14T06:01:11;101946.97;;;17.16;61.21
64298;BME280;50639;53.270;7.956;2023-06-14T06:03:38;101945.53;;;17.14;61.06
64298;BME280;50639;53.270;7.956;2023-06-14T06:06:04;101949.69;;;17.29;61.03
64298;BME280;50639;53.270;7.956;2023-06-14T06:08:30;101948.00;;;17.35;60.04
64298;BME280;50639;53.270;7.956;2023-06-14T06:10:56;101944.69;;;17.40;60.44
64298;BME280;50639;53.270;7.956;2023-06-14T06:13:22;101951.53;;;17.42;60.31
64298;BME280;50639;53.270;7.956;2023-06-14T06:15:48;101953.00;;;17.45;59.42
64298;BME280;50639;53.270;7.956;2023-06-14T06:18:14;101955.31;;;17.41;59.40
64298;BME280;50639;53.270;7.956;2023-06-14T06:20:39;101960.69;;;17.61;59.13
64298;BME280;50639;53.270;7.956;2023-06-14T06:23:05;101957.81;;;17.62;58.73
64298;BME280;50639;53.270;7.956;2023-06-14T06:25:30;101953.03;;;17.71;59.55
64298;BME280;50639;53.270;7.956;2023-06-14T06:27:57;101954.44;;;17.87;58.42
64298;BME280;50639;53.270;7.956;2023-06-14T06:30:23;101962.31;;;17.95;57.71
64298;BME280;50639;53.270;7.956;2023-06-14T06:32:48;101959.63;;;18.01;58.18
64298;BME280;50639;53.270;7.956;2023-06-14T06:35:14;101957.31;;;18.12;58.03
64298;BME280;50639;53.270;7.956;2023-06-14T06:37:41;101961.00;;;18.24;57.14
64298;BME280;50639;53.270;7.956;2023-06-14T06:40:07;101965.78;;;18.22;56.84
64298;BME280;50639;53.270;7.956;2023-06-14T06:42:34;101964.09;;;18.34;56.17
64298;BME280;50639;53.270;7.956;2023-06-14T06:45:02;101967.81;;;18.39;56.18
64298;BME280;50639;53.270;7.956;2023-06-14T06:47:28;101971.94;;;18.49;56.19
64298;BME280;50639;53.270;7.956;2023-06-14T06:49:53;101973.19;;;18.59;56.08
64298;BME280;50639;53.270;7.956;2023-06-14T06:52:19;101972.09;;;18.67;55.79
64298;BME280;50639;53.270;7.956;2023-06-14T06:54:44;101972.91;;;18.74;55.75
64298;BME280;50639;53.270;7.956;2023-06-14T06:57:10;101979.34;;;18.79;54.81
64298;BME280;50639;53.270;7.956;2023-06-14T06:59:36;101969.47;;;18.92;54.70
64298;BME280;50639;53.270;7.956;2023-06-14T07:02:06;101973.63;;;18.94;53.96
64298;BME280;50639;53.270;7.956;2023-06-14T07:04:32;101982.28;;;19.09;53.82
64298;BME280;50639;53.270;7.956;2023-06-14T07:06:57;101988.94;;;19.13;53.15
64298;BME280;50639;53.270;7.956;2023-06-14T07:09:23;101986.78;;;19.22;53.17
64298;BME280;50639;53.270;7.956;2023-06-14T07:11:51;101990.66;;;19.33;53.18
64298;BME280;50639;53.270;7.956;2023-06-14T07:14:17;101985.81;;;19.41;52.54
64298;BME280;50639;53.270;7.956;2023-06-14T07:16:43;101991.72;;;19.32;52.49
64298;BME280;50639;53.270;7.956;2023-06-14T07:19:16;101996.81;;;19.46;51.77
64298;BME280;50639;53.270;7.956;2023-06-14T07:21:46;101993.94;;;19.41;51.64
64298;BME280;50639;53.270;7.956;2023-06-14T07:24:11;101987.66;;;19.47;51.73
64298;BME280;50639;53.270;7.956;2023-06-14T07:26:37;101999.00;;;19.63;52.75
64298;BME280;50639;53.270;7.956;2023-06-14T07:29:02;101991.03;;;19.68;51.58
64298;BME280;50639;53.270;7.956;2023-06-14T07:31:31;101993.97;;;19.66;51.10
64298;BME280;50639;53.270;7.956;2023-06-14T07:33:56;101991.81;;;19.75;51.43
64298;BME280;50639;53.270;7.956;2023-06-14T07:36:22;101987.44;;;19.74;51.14
64298;BME280;50639;53.270;7.956;2023-06-14T07:38:51;101985.19;;;19.89;50.39
64298;BME280;50639;53.270;7.956;2023-06-14T07:41:20;101989.00;;;20.06;50.20
64298;BME280;50639;53.270;7.956;2023-06-14T07:43:46;101988.69;;;20.14;50.22
64298;BME280;50639;53.270;7.956;2023-06-14T07:46:12;101992.41;;;20.20;49.17
64298;BME280;50639;53.270;7.956;2023-06-14T07:48:38;101995.47;;;20.23;49.21
64298;BME280;50639;53.270;7.956;2023-06-14T07:51:03;101993.75;;;20.29;49.38
64298;BME280;50639;53.270;7.956;2023-06-14T07:53:35;101984.53;;;20.37;49.41
64298;BME280;50639;53.270;7.956;2023-06-14T07:56:01;101997.47;;;20.35;49.47
64298;BME280;50639;53.270;7.956;2023-06-14T07:58:35;101991.00;;;20.54;49.40
64298;BME280;50639;53.270;7.956;2023-06-14T08:01:00;101988.50;;;20.52;48.96
64298;BME280;50639;53.270;7.956;2023-06-14T08:03:34;101984.19;;;20.63;47.43
64298;BME280;50639;53.270;7.956;2023-06-14T08:06:00;101985.84;;;20.64;48.14
64298;BME280;50639;53.270;7.956;2023-06-14T08:08:26;101982.91;;;20.65;48.27
64298;BME280;50639;53.270;7.956;2023-06-14T08:10:52;101982.81;;;20.72;47.77
64298;BME280;50639;53.270;7.956;2023-06-14T08:13:17;101983.47;;;20.86;47.39
64298;BME280;50639;53.270;7.956;2023-06-14T08:15:43;101988.94;;;20.97;46.39
64298;BME280;50639;53.270;7.956;2023-06-14T08:18:09;101996.03;;;20.98;46.17
64298;BME280;50639;53.270;7.956;2023-06-14T08:20:35;102001.59;;;21.03;44.80
64298;BME280;50639;53.270;7.956;2023-06-14T08:23:02;101996.31;;;21.09;44.27
64298;BME280;50639;53.270;7.956;2023-06-14T08:25:30;101996.53;;;21.07;45.46
64298;BME280;50639;53.270;7.956;2023-06-14T08:27:55;101998.63;;;21.23;44.09
64298;BME280;50639;53.270;7.956;2023-06-14T08:30:21;101987.97;;;21.22;44.26
64298;BME280;50639;53.270;7.956;2023-06-14T08:32:47;101994.13;;;21.29;44.43
64298;BME280;50639;53.270;7.956;2023-06-14T08:35:12;101988.97;;;21.27;43.73
64298;BME280;50639;53.270;7.956;2023-06-14T08:37:39;101992.28;;;21.41;43.77
64298;BME280;50639;53.270;7.956;2023-06-14T08:40:17;101985.66;;;21.49;44.06
64298;BME280;50639;53.270;7.956;2023-06-14T08:42:43;101974.00;;;21.60;43.89
64298;BME280;50639;53.270;7.956;2023-06-14T08:45:08;101984.63;;;21.73;43.18
64298;BME280;50639;53.270;7.956;2023-06-14T08:47:34;101980.84;;;21.74;42.59
64298;BME280;50639;53.270;7.956;2023-06-14T08:50:02;101981.31;;;21.83;42.96
64298;BME280;50639;53.270;7.956;2023-06-14T08:52:29;101984.50;;;21.91;42.20
64298;BME280;50639;53.270;7.956;2023-06-14T08:54:59;101984.78;;;21.90;41.57
64298;BME280;50639;53.270;7.956;2023-06-14T08:57:26;101985.56;;;21.90;41.93
64298;BME280;50639;53.270;7.956;2023-06-14T08:59:56;101972.94;;;21.96;42.43
64298;BME280;50639;53.270;7.956;2023-06-14T09:02:22;101982.97;;;21.95;41.73
64298;BME280;50639;53.270;7.956;2023-06-14T09:04:48;101978.28;;;22.02;41.29
64298;BME280;50639;53.270;7.956;2023-06-14T09:07:17;101984.91;;;22.06;40.83
64298;BME280;50639;53.270;7.956;2023-06-14T09:09:43;101985.84;;;22.12;40.31
64298;BME280;50639;53.270;7.956;2023-06-14T09:12:10;101980.03;;;22.20;40.65
64298;BME280;50639;53.270;7.956;2023-06-14T09:14:36;101985.59;;;22.02;41.17
64298;BME280;50639;53.270;7.956;2023-06-14T09:17:04;101987.59;;;22.18;40.82
64298;BME280;50639;53.270;7.956;2023-06-14T09:19:30;101989.47;;;22.29;39.97
64298;BME280;50639;53.270;7.956;2023-06-14T09:21:56;101996.66;;;22.47;39.06
64298;BME280;50639;53.270;7.956;2023-06-14T09:24:24;101992.88;;;22.48;38.61
64298;BME280;50639;53.270;7.956;2023-06-14T09:26:51;101997.38;;;22.42;38.90
64298;BME280;50639;53.270;7.956;2023-06-14T09:29:17;101993.56;;;22.43;38.65
64298;BME280;50639;53.270;7.956;2023-06-14T09:31:46;102001.03;;;22.48;38.31
64298;BME280;50639;53.270;7.956;2023-06-14T09:34:12;101995.81;;;22.58;39.14
64298;BME280;50639;53.270;7.956;2023-06-14T09:36:39;101992.94;;;22.65;38.93
64298;BME280;50639;53.270;7.956;2023-06-14T09:39:05;101994.22;;;22.62;38.49
64298;BME280;50639;53.270;7.956;2023-06-14T09:44:01;101994.81;;;22.76;38.71
64298;BME280;50639;53.270;7.956;2023-06-14T09:46:27;101994.69;;;22.71;39.04
64298;BME280;50639;53.270;7.956;2023-06-14T09:48:54;101999.22;;;22.77;38.59
64298;BME280;50639;53.270;7.956;2023-06-14T09:51:22;101996.78;;;22.92;39.84
64298;BME280;50639;53.270;7.956;2023-06-14T09:53:52;101991.91;;;22.94;38.74
64298;BME280;50639;53.270;7.956;2023-06-14T09:56:29;101990.13;;;22.88;37.09
64298;BME280;50639;53.270;7.956;2023-06-14T09:58:56;101991.13;;;23.10;37.21
64298;BME280;50639;53.270;7.956;2023-06-14T10:01:24;101991.03;;;23.22;36.91
64298;BME280;50639;53.270;7.956;2023-06-14T10:03:55;101992.16;;;23.38;36.87
64298;BME280;50639;53.270;7.956;2023-06-14T10:06:22;101982.91;;;23.39;36.61
64298;BME280;50639;53.270;7.956;2023-06-14T10:08:52;101988.81;;;23.36;36.54
64298;BME280;50639;53.270;7.956;2023-06-14T10:11:20;102005.72;;;23.49;36.89
64298;BME280;50639;53.270;7.956;2023-06-14T10:13:47;102002.91;;;23.61;35.79
64298;BME280;50639;53.270;7.956;2023-06-14T10:16:32;101986.47;;;23.56;36.22
64298;BME280;50639;53.270;7.956;2023-06-14T10:19:17;101988.69;;;23.59;35.97
64298;BME280;50639;53.270;7.956;2023-06-14T10:22:17;101995.13;;;23.70;35.58
64298;BME280;50639;53.270;7.956;2023-06-14T10:24:45;102001.34;;;23.82;36.35
64298;BME280;50639;53.270;7.956;2023-06-14T10:27:13;101986.34;;;23.84;36.76
64298;BME280;50639;53.270;7.956;2023-06-14T10:32:20;101993.53;;;24.07;35.09
64298;BME280;50639;53.270;7.956;2023-06-14T10:34:53;101981.19;;;24.05;34.60
64298;BME280;50639;53.270;7.956;2023-06-14T10:37:19;101991.38;;;23.92;35.14
64298;BME280;50639;53.270;7.956;2023-06-14T10:39:45;101995.53;;;23.95;35.43
64298;BME280;50639;53.270;7.956;2023-06-14T10:42:12;101995.41;;;24.23;36.67
64298;BME280;50639;53.270;7.956;2023-06-14T10:47:10;101993.28;;;24.09;35.69
64298;BME280;50639;53.270;7.956;2023-06-14T10:52:07;101977.63;;;24.21;35.21
64298;BME280;50639;53.270;7.956;2023-06-14T10:54:34;101990.91;;;24.34;35.28
64298;BME280;50639;53.270;7.956;2023-06-14T10:57:00;101988.81;;;24.41;36.06
64298;BME280;50639;53.270;7.956;2023-06-14T10:59:25;101971.66;;;24.46;35.55
64298;BME280;50639;53.270;7.956;2023-06-14T11:04:47;101982.16;;;24.81;33.75
64298;BME280;50639;53.270;7.956;2023-06-14T11:07:44;101980.72;;;24.95;34.44
64298;BME280;50639;53.270;7.956;2023-06-14T11:12:48;101975.34;;;25.05;34.25
64298;BME280;50639;53.270;7.956;2023-06-14T11:15:13;101977.03;;;25.11;34.30
64298;BME280;50639;53.270;7.956;2023-06-14T11:17:39;101961.84;;;24.93;35.33
64298;BME280;50639;53.270;7.956;2023-06-14T11:20:12;101970.16;;;24.82;32.89
64298;BME280;50639;53.270;7.956;2023-06-14T11:22:41;101960.09;;;24.60;33.72
64298;BME280;50639;53.270;7.956;2023-06-14T11:25:11;101959.91;;;24.72;33.91
64298;BME280;50639;53.270;7.956;2023-06-14T11:27:37;101957.97;;;24.67;34.08
64298;BME280;50639;53.270;7.956;2023-06-14T11:30:03;101963.22;;;24.96;34.14
64298;BME280;50639;53.270;7.956;2023-06-14T11:32:31;101959.03;;;24.88;33.73
64298;BME280;50639;53.270;7.956;2023-06-14T11:34:56;101957.75;;;24.96;34.97
64298;BME280;50639;53.270;7.956;2023-06-14T11:37:23;101956.75;;;25.07;33.77
64298;BME280;50639;53.270;7.956;2023-06-14T11:39:51;101946.31;;;25.31;34.40
64298;BME280;50639;53.270;7.956;2023-06-14T11:42:17;101943.84;;;25.29;33.88
64298;BME280;50639;53.270;7.956;2023-06-14T11:44:46;101951.31;;;25.39;34.09
64298;BME280;50639;53.270;7.956;2023-06-14T11:47:12;101937.25;;;25.62;32.56
64298;BME280;50639;53.270;7.956;2023-06-14T11:49:37;101930.00;;;25.83;32.79
64298;BME280;50639;53.270;7.956;2023-06-14T11:52:03;101938.91;;;25.63;33.18
64298;BME280;50639;53.270;7.956;2023-06-14T11:54:28;101936.56;;;25.45;31.72
64298;BME280;50639;53.270;7.956;2023-06-14T11:56:54;101933.78;;;25.08;32.79
64298;BME280;50639;53.270;7.956;2023-06-14T11:59:20;101937.75;;;25.22;32.87
64298;BME280;50639;53.270;7.956;2023-06-14T12:01:47;101939.44;;;25.28;32.69
64298;BME280;50639;53.270;7.956;2023-06-14T12:04:13;101933.25;;;25.06;32.61
64298;BME280;50639;53.270;7.956;2023-06-14T12:06:38;101938.63;;;24.96;32.45
64298;BME280;50639;53.270;7.956;2023-06-14T12:09:05;101939.34;;;24.64;32.42
64298;BME280;50639;53.270;7.956;2023-06-14T12:11:38;101934.13;;;24.90;33.11
64298;BME280;50639;53.270;7.956;2023-06-14T12:14:05;101920.94;;;25.40;33.30
64298;BME280;50639;53.270;7.956;2023-06-14T12:16:38;101919.91;;;25.89;32.92
64298;BME280;50639;53.270;7.956;2023-06-14T12:19:17;101915.41;;;26.19;31.57
64298;BME280;50639;53.270;7.956;2023-06-14T12:21:45;101927.25;;;26.35;30.92
64298;BME280;50639;53.270;7.956;2023-06-14T12:24:13;101924.03;;;26.58;31.14
64298;BME280;50639;53.270;7.956;2023-06-14T12:26:39;101923.78;;;26.75;29.83
64298;BME280;50639;53.270;7.956;2023-06-14T12:29:06;101920.47;;;26.53;31.19
64298;BME280;50639;53.270;7.956;2023-06-14T12:31:32;101926.50;;;26.60;30.82
64298;BME280;50639;53.270;7.956;2023-06-14T12:33:58;101923.69;;;26.30;30.50
64298;BME280;50639;53.270;7.956;2023-06-14T12:36:24;101926.13;;;26.26;31.14
64298;BME280;50639;53.270;7.956;2023-06-14T12:38:51;101924.31;;;26.62;30.34
64298;BME280;50639;53.270;7.956;2023-06-14T12:41:19;101921.88;;;26.76;29.76
64298;BME280;50639;53.270;7.956;2023-06-14T12:43:46;101919.69;;;26.73;29.24
64298;BME280;50639;53.270;7.956;2023-06-14T12:46:12;101923.22;;;26.58;29.80
64298;BME280;50639;53.270;7.956;2023-06-14T12:48:37;101928.41;;;26.44;30.67
64298;BME280;50639;53.270;7.956;2023-06-14T12:51:03;101939.31;;;26.34;30.21
64298;BME280;50639;53.270;7.956;2023-06-14T12:53:28;101936.50;;;26.19;31.27
64298;BME280;50639;53.270;7.956;2023-06-14T12:55:54;101938.06;;;26.05;30.98
64298;BME280;50639;53.270;7.956;2023-06-14T12:58:20;101932.94;;;26.23;31.34
64298;BME280;50639;53.270;7.956;2023-06-14T13:00:46;101924.88;;;26.64;31.03
64298;BME280;50639;53.270;7.956;2023-06-14T13:03:11;101933.19;;;27.05;31.10
64298;BME280;50639;53.270;7.956;2023-06-14T13:05:37;101921.13;;;27.41;28.87
64298;BME280;50639;53.270;7.956;2023-06-14T13:08:07;101917.81;;;27.44;29.30
64298;BME280;50639;53.270;7.956;2023-06-14T13:10:34;101917.00;;;26.98;29.03
64298;BME280;50639;53.270;7.956;2023-06-14T13:12:59;101924.59;;;26.66;30.39